Time;durP1;ratioP1;P1;durP2;ratioP2;P2;SDS_P1;SDS_P2;PMS_P1;PMS_P2;Temp;Humidity;BMP_temperature;BMP_pressure;BME280_temperature;BME280_humidity;BME280_pressure;Samples;Min_cycle;Max_cycle;Signal;HPM_P1;HPM_P2
2023/01/10 00:01:41;;;;;;;18.37;7.13;;;6.50;99.90;;;;;;4957140;28;20310;-59
2023/01/10 00:04:09;;;;;;;16.73;6.77;;;6.60;99.90;;;;;;4957824;29;20231;-58
2023/01/10 00:06:37;;;;;;;17.80;7.13;;;6.60;99.90;;;;;;4957748;28;20595;-59
2023/01/10 00:09:06;;;;;;;18.63;7.10;;;6.50;99.90;;;;;;4957838;29;20227;-59
2023/01/10 00:14:20;;;;;;;17.47;5.80;;;6.40;99.90;;;;;;4957679;29;20714;-59
2023/01/10 00:16:48;;;;;;;16.73;6.30;;;6.40;99.90;;;;;;4957348;28;20223;-59
2023/01/10 00:19:16;;;;;;;20.27;6.57;;;6.30;99.90;;;;;;4957056;29;20235;-59
2023/01/10 00:21:44;;;;;;;20.17;6.93;;;6.30;99.90;;;;;;4957425;28;20239;-59
2023/01/10 00:24:18;;;;;;;13.17;6.60;;;6.30;99.90;;;;;;4957355;28;20242;-59
2023/01/10 00:26:50;;;;;;;16.63;6.50;;;6.30;99.90;;;;;;4957464;28;20746;-59
2023/01/10 00:29:20;;;;;;;15.23;6.70;;;6.30;99.90;;;;;;4957218;28;20224;-59
2023/01/10 00:31:48;;;;;;;16.80;7.40;;;6.30;99.90;;;;;;4956618;28;20252;-59
2023/01/10 00:34:16;;;;;;;15.93;7.37;;;6.30;99.90;;;;;;4957115;29;20223;-59
2023/01/10 00:36:46;;;;;;;18.50;6.80;;;6.30;99.90;;;;;;4956891;28;20239;-59
2023/01/10 00:39:18;;;;;;;13.03;6.53;;;6.30;99.90;;;;;;4957103;29;20306;-59
2023/01/10 00:44:32;;;;;;;23.50;7.97;;;6.30;99.90;;;;;;4957130;29;20238;-58
2023/01/10 00:47:00;;;;;;;15.93;6.97;;;6.20;99.90;;;;;;4956740;29;20223;-59
2023/01/10 00:49:28;;;;;;;12.27;7.00;;;6.20;99.90;;;;;;4956673;29;20700;-58
2023/01/10 00:51:58;;;;;;;14.90;7.60;;;6.10;99.90;;;;;;4957034;28;20242;-59
2023/01/10 00:54:27;;;;;;;17.30;7.50;;;6.10;99.90;;;;;;4956605;28;20235;-57
2023/01/10 00:56:55;;;;;;;12.17;7.13;;;6.10;99.90;;;;;;4957120;28;20787;-59
2023/01/10 00:59:24;;;;;;;15.53;6.77;;;6.00;99.90;;;;;;4956887;28;20326;-59
2023/01/10 01:01:52;;;;;;;13.67;6.90;;;6.00;99.90;;;;;;4956140;28;20482;-59
2023/01/10 01:04:21;;;;;;;16.53;7.27;;;5.90;99.90;;;;;;4956780;28;20227;-59
2023/01/10 01:06:54;;;;;;;13.17;7.43;;;5.90;99.90;;;;;;4956701;28;20234;-59
2023/01/10 01:09:22;;;;;;;16.27;7.27;;;5.90;99.90;;;;;;4956591;29;20589;-59
2023/01/10 01:11:51;;;;;;;12.63;6.63;;;5.90;99.90;;;;;;4956677;29;20478;-59
2023/01/10 01:14:19;;;;;;;16.17;7.63;;;6.00;99.90;;;;;;4956534;29;20823;-59
2023/01/10 01:16:47;;;;;;;17.83;7.47;;;6.00;99.90;;;;;;4956034;29;20475;-59
2023/01/10 01:19:15;;;;;;;19.00;7.57;;;6.10;99.90;;;;;;4956408;29;20538;-59
2023/01/10 01:21:43;;;;;;;16.03;7.77;;;6.10;99.90;;;;;;4956287;28;20223;-58
2023/01/10 01:24:11;;;;;;;15.00;7.60;;;6.10;99.90;;;;;;4956595;28;20231;-59
2023/01/10 01:26:41;;;;;;;15.27;7.53;;;6.10;99.90;;;;;;4956392;28;20311;-59
2023/01/10 01:29:10;;;;;;;16.50;7.00;;;6.20;99.90;;;;;;4956118;28;20281;-59
2023/01/10 01:31:38;;;;;;;14.37;6.53;;;6.10;99.90;;;;;;4955627;28;20603;-59
2023/01/10 01:34:07;;;;;;;14.73;7.30;;;6.20;99.90;;;;;;4955884;28;20254;-59
2023/01/10 01:36:35;;;;;;;15.00;6.70;;;6.20;99.90;;;;;;4955862;29;20227;-59
2023/01/10 01:39:05;;;;;;;13.10;6.70;;;6.20;99.90;;;;;;4955925;28;20246;-59
2023/01/10 01:44:20;;;;;;;14.40;6.57;;;6.20;99.90;;;;;;4955971;29;20227;-59
2023/01/10 01:46:51;;;;;;;14.23;7.13;;;6.20;99.90;;;;;;4955332;28;20224;-59
2023/01/10 01:49:23;;;;;;;14.87;7.40;;;6.20;99.90;;;;;;4955997;28;20482;-59
2023/01/10 01:51:57;;;;;;;13.67;6.50;;;6.20;99.90;;;;;;4955860;28;20468;-59
2023/01/10 01:54:26;;;;;;;14.30;6.70;;;6.20;99.90;;;;;;4955643;29;20679;-59
2023/01/10 01:57:00;;;;;;;14.77;7.00;;;6.20;99.90;;;;;;4955642;29;20255;-59
2023/01/10 01:59:32;;;;;;;22.37;7.70;;;6.20;99.90;;;;;;4949869;28;20703;-58
2023/01/10 02:02:05;;;;;;;14.60;7.40;;;6.20;99.90;;;;;;4954973;28;20280;-59
2023/01/10 02:04:38;;;;;;;14.87;6.60;;;6.20;99.90;;;;;;4955574;28;20562;-59
2023/01/10 02:07:06;;;;;;;11.83;6.40;;;6.10;99.90;;;;;;4955428;29;20231;-59
2023/01/10 02:09:40;;;;;;;15.67;6.63;;;6.10;99.90;;;;;;4955651;28;20482;-59
2023/01/10 02:12:09;;;;;;;14.60;6.40;;;6.10;99.90;;;;;;4955428;28;20990;-58
2023/01/10 02:14:38;;;;;;;15.60;6.60;;;6.10;99.90;;;;;;4955461;28;20223;-59
2023/01/10 02:17:09;;;;;;;13.87;6.40;;;6.10;99.90;;;;;;4954536;28;20270;-59
2023/01/10 02:19:50;;;;;;;11.37;6.00;;;6.10;99.90;;;;;;4954711;29;20242;-58
2023/01/10 02:22:41;;;;;;;13.07;6.83;;;6.10;99.90;;;;;;4948780;29;20974;-58
2023/01/10 02:25:39;;;;;;;14.57;6.50;;;6.10;99.90;;;;;;4954955;29;20982;-59
2023/01/10 02:28:25;;;;;;;9.93;5.93;;;6.10;99.90;;;;;;4955041;28;20224;-59
2023/01/10 02:31:19;;;;;;;14.77;6.53;;;6.10;99.90;;;;;;4954794;28;20473;-59
2023/01/10 02:33:57;;;;;;;13.87;6.27;;;6.10;99.90;;;;;;4955066;28;20236;-59
2023/01/10 02:36:37;;;;;;;14.70;6.73;;;6.10;99.90;;;;;;4955130;29;20253;-57
2023/01/10 02:39:11;;;;;;;12.37;6.37;;;6.00;99.90;;;;;;4955190;28;20732;-59
2023/01/10 02:41:46;;;;;;;9.00;6.03;;;6.10;99.90;;;;;;4954853;28;20480;-59
2023/01/10 02:44:19;;;;;;;18.87;6.17;;;6.00;99.90;;;;;;4955227;28;20237;-59
2023/01/10 02:46:49;;;;;;;10.97;5.83;;;5.90;99.90;;;;;;4954662;28;20557;-59
2023/01/10 02:49:18;;;;;;;11.43;5.10;;;5.90;99.90;;;;;;4954938;29;20286;-59
2023/01/10 02:51:46;;;;;;;12.70;5.77;;;5.90;99.90;;;;;;4954790;28;20272;-59
2023/01/10 02:54:18;;;;;;;11.80;4.83;;;5.90;99.90;;;;;;4955057;29;20241;-58
2023/01/10 02:57:18;;;;;;;14.37;5.67;;;6.00;99.90;;;;;;4954877;28;20833;-59
2023/01/10 03:00:20;;;;;;;11.87;4.60;;;6.00;99.90;;;;;;4951231;28;20242;-59
2023/01/10 03:03:12;;;;;;;13.70;5.00;;;5.90;99.90;;;;;;4954099;29;20906;-59
2023/01/10 03:05:54;;;;;;;11.13;4.60;;;5.90;99.90;;;;;;4954633;28;20568;-59
2023/01/10 03:08:34;;;;;;;11.33;4.37;;;5.80;99.90;;;;;;4953374;29;20234;-59
2023/01/10 03:11:04;;;;;;;12.87;4.27;;;5.80;99.90;;;;;;4954703;28;20717;-59
2023/01/10 03:13:37;;;;;;;11.40;4.30;;;5.70;99.90;;;;;;4954669;28;20521;-59
2023/01/10 03:16:10;;;;;;;14.80;4.80;;;5.60;99.90;;;;;;4954650;28;20238;-59
2023/01/10 03:18:43;;;;;;;12.10;4.70;;;5.60;99.90;;;;;;4953940;28;20265;-59
2023/01/10 03:21:13;;;;;;;14.17;4.83;;;5.60;99.90;;;;;;4949778;29;20234;-57
2023/01/10 03:23:42;;;;;;;14.70;4.97;;;5.50;99.90;;;;;;4954261;28;20247;-59
2023/01/10 03:26:11;;;;;;;10.03;4.70;;;5.50;99.90;;;;;;4954475;28;20474;-59
2023/01/10 03:28:47;;;;;;;12.17;4.80;;;5.50;99.90;;;;;;4954468;28;20235;-59
2023/01/10 03:31:18;;;;;;;9.50;4.33;;;5.50;99.90;;;;;;4957859;28;20482;-59
2023/01/10 03:33:48;;;;;;;7.40;4.23;;;5.50;99.90;;;;;;4958058;28;20502;-59
2023/01/10 03:36:29;;;;;;;10.47;4.70;;;5.50;99.90;;;;;;4958171;28;20229;-59
2023/01/10 03:39:07;;;;;;;13.77;4.53;;;5.50;99.90;;;;;;4958132;28;20593;-59
2023/01/10 03:41:39;;;;;;;11.13;4.97;;;5.50;99.90;;;;;;4958037;28;20462;-59
2023/01/10 03:47:07;;;;;;;13.17;4.77;;;5.60;99.90;;;;;;4957656;29;20256;-59
2023/01/10 03:49:38;;;;;;;9.47;4.13;;;5.60;99.90;;;;;;4957604;29;20216;-59
2023/01/10 03:52:10;;;;;;;11.60;4.37;;;5.70;99.90;;;;;;4957791;28;20525;-59
2023/01/10 03:54:38;;;;;;;12.83;4.40;;;5.70;99.90;;;;;;4958040;28;20863;-58
2023/01/10 03:57:07;;;;;;;7.77;3.97;;;5.70;99.90;;;;;;4958105;28;20489;-59
2023/01/10 03:59:37;;;;;;;12.73;3.90;;;5.70;99.90;;;;;;4957465;28;20990;-59
2023/01/10 04:02:05;;;;;;;12.63;4.57;;;5.80;99.90;;;;;;4957169;28;20491;-59
2023/01/10 04:04:33;;;;;;;10.77;3.73;;;5.80;99.90;;;;;;4957458;28;20270;-59
2023/01/10 04:07:01;;;;;;;8.47;3.93;;;5.90;99.90;;;;;;4957957;29;20718;-59
2023/01/10 04:09:31;;;;;;;10.93;3.47;;;5.90;99.90;;;;;;4957530;28;20478;-59
2023/01/10 04:11:59;;;;;;;10.67;3.70;;;5.80;99.90;;;;;;4957693;28;20328;-59
2023/01/10 04:14:27;;;;;;;12.10;3.67;;;5.80;99.90;;;;;;4957719;28;20237;-59
2023/01/10 04:16:55;;;;;;;9.77;3.20;;;5.90;99.90;;;;;;4957512;28;20235;-59
2023/01/10 04:19:23;;;;;;;7.97;2.97;;;5.90;99.90;;;;;;4957174;28;20489;-59
2023/01/10 04:21:51;;;;;;;16.27;4.23;;;6.00;99.90;;;;;;4957546;29;20238;-59
2023/01/10 04:24:19;;;;;;;13.53;4.80;;;5.90;99.90;;;;;;4957664;28;20484;-58
2023/01/10 04:26:49;;;;;;;11.60;3.63;;;5.90;99.90;;;;;;4957226;28;20477;-59
2023/01/10 04:29:17;;;;;;;7.73;3.40;;;5.90;99.90;;;;;;4957178;29;20470;-59
2023/01/10 04:31:45;;;;;;;12.38;4.00;;;5.90;99.90;;;;;;4955781;28;20443;-58
2023/01/10 04:34:13;;;;;;;9.63;2.73;;;5.80;99.90;;;;;;4957415;28;20325;-59
2023/01/10 04:36:41;;;;;;;13.67;3.33;;;5.90;99.90;;;;;;4957010;29;20586;-59
2023/01/10 04:39:09;;;;;;;10.57;3.60;;;5.80;99.90;;;;;;4957130;28;20227;-59
2023/01/10 04:41:37;;;;;;;12.40;3.13;;;5.80;99.90;;;;;;4956521;28;20235;-59
2023/01/10 04:44:07;;;;;;;7.50;2.90;;;5.80;99.90;;;;;;4957044;28;20478;-59
2023/01/10 04:46:35;;;;;;;8.97;2.97;;;5.80;99.90;;;;;;4956531;28;20467;-59
2023/01/10 04:49:03;;;;;;;16.10;3.17;;;5.80;99.90;;;;;;4956855;29;20238;-59
2023/01/10 04:51:31;;;;;;;9.67;3.50;;;5.80;99.90;;;;;;4956897;28;20475;-58
2023/01/10 04:53:59;;;;;;;7.20;3.10;;;5.80;99.90;;;;;;4956918;28;20473;-58
2023/01/10 04:56:27;;;;;;;11.03;4.03;;;5.80;99.90;;;;;;4956897;28;20695;-58
2023/01/10 04:58:56;;;;;;;9.50;3.80;;;5.80;99.90;;;;;;4956873;28;20227;-59
2023/01/10 05:01:26;;;;;;;8.43;3.13;;;5.80;99.90;;;;;;4956158;28;20858;-59
2023/01/10 05:03:55;;;;;;;11.97;3.67;;;5.80;99.90;;;;;;4956843;28;20587;-59
2023/01/10 05:06:24;;;;;;;11.03;3.50;;;5.70;99.90;;;;;;4956847;29;20969;-59
2023/01/10 05:08:52;;;;;;;11.07;3.13;;;5.60;99.90;;;;;;4956702;28;20687;-58
2023/01/10 05:11:20;;;;;;;8.00;3.17;;;5.50;99.90;;;;;;4956854;28;20680;-59
2023/01/10 05:13:48;;;;;;;16.77;3.80;;;5.50;99.90;;;;;;4956660;28;20242;-59
2023/01/10 05:16:17;;;;;;;10.83;3.50;;;5.50;99.90;;;;;;4956802;28;20869;-59
2023/01/10 05:18:46;;;;;;;15.17;3.70;;;5.40;99.90;;;;;;4955631;29;20231;-59
2023/01/10 05:21:14;;;;;;;10.07;3.30;;;5.40;99.90;;;;;;4956248;28;20989;-59
2023/01/10 05:23:43;;;;;;;12.10;3.23;;;5.40;99.90;;;;;;4955528;28;20280;-59
2023/01/10 05:26:13;;;;;;;8.47;3.53;;;5.40;99.90;;;;;;4954160;29;20481;-58
2023/01/10 05:28:41;;;;;;;8.87;3.13;;;5.50;99.90;;;;;;4956244;28;20490;-58
2023/01/10 05:31:12;;;;;;;12.60;3.80;;;5.40;99.90;;;;;;4947911;28;20238;-58
2023/01/10 05:33:46;;;;;;;12.40;3.90;;;5.30;99.90;;;;;;4955661;29;20474;-59
2023/01/10 05:36:14;;;;;;;14.23;3.77;;;5.30;99.90;;;;;;4949120;29;20478;-59
2023/01/10 05:38:42;;;;;;;11.73;3.90;;;5.20;99.90;;;;;;4955916;28;20474;-59
2023/01/10 05:41:10;;;;;;;10.80;3.67;;;5.20;99.90;;;;;;4956212;29;21080;-59
2023/01/10 05:43:38;;;;;;;10.53;3.10;;;5.20;99.90;;;;;;4955735;29;20467;-59
2023/01/10 05:46:06;;;;;;;13.00;3.20;;;5.20;99.90;;;;;;4956184;29;21019;-59
2023/01/10 05:48:34;;;;;;;10.63;3.23;;;5.20;99.90;;;;;;4955586;29;20473;-59
2023/01/10 05:51:04;;;;;;;11.43;3.20;;;5.20;99.90;;;;;;4955655;28;20833;-58
2023/01/10 05:53:32;;;;;;;10.07;3.03;;;5.10;99.90;;;;;;4955109;28;20466;-59
2023/01/10 05:56:02;;;;;;;12.70;3.60;;;5.10;99.90;;;;;;4956045;28;20564;-59
2023/01/10 05:58:30;;;;;;;11.53;3.40;;;5.10;99.90;;;;;;4955642;28;20471;-59
2023/01/10 06:00:58;;;;;;;9.73;3.30;;;5.10;99.90;;;;;;4955148;28;20474;-59
2023/01/10 06:03:27;;;;;;;9.43;3.40;;;5.10;99.90;;;;;;4955251;28;20510;-59
2023/01/10 06:05:56;;;;;;;10.83;3.30;;;5.10;99.90;;;;;;4955182;28;20474;-59
2023/01/10 06:08:25;;;;;;;11.73;4.10;;;5.10;99.90;;;;;;4955404;28;20882;-58
2023/01/10 06:10:53;;;;;;;10.70;3.47;;;5.00;99.90;;;;;;4954949;29;20473;-59
2023/01/10 06:13:21;;;;;;;9.67;3.77;;;5.00;99.90;;;;;;4954968;28;20469;-58
2023/01/10 06:15:51;;;;;;;14.03;4.53;;;5.00;99.90;;;;;;4953610;28;20913;-59
2023/01/10 06:18:19;;;;;;;14.07;4.30;;;5.00;99.90;;;;;;4954742;29;20477;-59
2023/01/10 06:20:47;;;;;;;13.43;4.13;;;5.00;99.90;;;;;;4955036;28;20496;-59
2023/01/10 06:23:15;;;;;;;14.00;4.73;;;5.00;99.90;;;;;;4953957;29;20478;-58
2023/01/10 06:25:45;;;;;;;12.47;3.80;;;5.10;99.90;;;;;;4954152;29;21061;-58
2023/01/10 06:28:14;;;;;;;18.10;4.13;;;5.10;99.90;;;;;;4950653;29;20467;-59
2023/01/10 06:30:43;;;;;;;14.13;3.93;;;5.10;99.90;;;;;;4951636;28;20900;-59
2023/01/10 06:33:11;;;;;;;9.33;3.67;;;5.10;99.90;;;;;;4946933;29;20484;-59
2023/01/10 06:35:39;;;;;;;15.10;4.20;;;5.20;99.90;;;;;;4954046;29;20478;-59
2023/01/10 06:38:08;;;;;;;17.80;4.87;;;5.20;99.90;;;;;;4953091;29;20466;-59
2023/01/10 06:40:36;;;;;;;15.43;4.40;;;5.30;99.90;;;;;;4954117;29;20989;-59
2023/01/10 06:43:05;;;;;;;12.33;4.20;;;5.30;99.90;;;;;;4953558;28;20465;-59
2023/01/10 06:45:33;;;;;;;15.37;4.40;;;5.30;99.90;;;;;;4954807;28;20951;-59
2023/01/10 06:48:01;;;;;;;13.53;4.10;;;5.20;99.90;;;;;;4952695;29;20466;-55
2023/01/10 06:50:30;;;;;;;15.23;4.20;;;5.10;99.90;;;;;;4946930;28;20537;-59
2023/01/10 06:52:59;;;;;;;17.27;4.67;;;5.10;99.90;;;;;;4953302;29;20483;-59
2023/01/10 06:55:28;;;;;;;13.43;4.43;;;5.10;99.90;;;;;;4935742;29;20534;-58
2023/01/10 06:57:56;;;;;;;11.90;4.33;;;5.10;99.90;;;;;;4944568;29;20979;-59
2023/01/10 07:00:27;;;;;;;11.97;4.13;;;5.10;99.90;;;;;;4943588;28;20569;-58
2023/01/10 07:02:58;;;;;;;14.67;4.63;;;5.20;99.90;;;;;;4944503;29;20498;-59
2023/01/10 07:05:27;;;;;;;17.73;4.90;;;5.20;99.90;;;;;;4944096;29;20482;-58
2023/01/10 07:07:57;;;;;;;12.53;4.07;;;5.20;99.90;;;;;;4944583;29;20843;-58
2023/01/10 07:10:25;;;;;;;18.10;4.40;;;5.20;99.90;;;;;;4943211;29;20238;-58
2023/01/10 07:12:55;;;;;;;9.73;4.27;;;5.20;99.90;;;;;;4944174;28;20898;-57
2023/01/10 07:15:23;;;;;;;11.07;4.57;;;5.30;99.90;;;;;;4945373;29;20478;-59
2023/01/10 07:17:52;;;;;;;14.37;4.57;;;5.20;99.90;;;;;;4944687;29;20473;-58
2023/01/10 07:20:20;;;;;;;14.50;4.70;;;5.20;99.90;;;;;;4942043;28;21004;-59
2023/01/10 07:22:53;;;;;;;12.20;4.70;;;5.20;99.90;;;;;;4945532;28;20460;-58
2023/01/10 07:25:21;;;;;;;15.33;4.67;;;5.20;99.90;;;;;;4945362;29;20517;-59
2023/01/10 07:27:50;;;;;;;19.63;5.00;;;5.20;99.90;;;;;;4943743;28;21026;-58
2023/01/10 07:30:18;;;;;;;14.60;5.17;;;5.30;99.90;;;;;;4940866;28;20485;-57
2023/01/10 07:32:54;;;;;;;16.30;5.30;;;5.30;99.90;;;;;;4944252;28;20466;-57
2023/01/10 07:35:22;;;;;;;20.67;5.37;;;5.40;99.90;;;;;;4944531;29;20984;-58
2023/01/10 07:37:51;;;;;;;12.87;4.90;;;5.40;99.90;;;;;;4943505;29;20993;-58
2023/01/10 07:40:19;;;;;;;16.50;4.80;;;5.40;99.90;;;;;;4941834;29;20970;-57
2023/01/10 07:42:47;;;;;;;10.93;4.70;;;5.40;99.90;;;;;;4943377;29;20582;-58
2023/01/10 07:45:15;;;;;;;17.77;5.10;;;5.50;99.90;;;;;;4944528;28;21036;-58
2023/01/10 07:47:44;;;;;;;14.23;5.00;;;5.40;99.90;;;;;;4944061;29;20482;-53
2023/01/10 07:50:13;;;;;;;15.47;5.33;;;5.50;99.90;;;;;;4942455;29;20467;-57
2023/01/10 07:52:43;;;;;;;13.67;5.23;;;5.40;99.90;;;;;;4944356;28;20601;-57
2023/01/10 07:55:11;;;;;;;13.33;5.03;;;5.40;99.90;;;;;;4945174;28;20818;-58
2023/01/10 07:57:39;;;;;;;17.00;5.40;;;5.40;99.90;;;;;;4944700;29;20575;-58
2023/01/10 08:00:09;;;;;;;16.53;5.33;;;5.40;99.90;;;;;;4941602;29;20997;-58
2023/01/10 08:02:37;;;;;;;15.47;5.63;;;5.40;99.90;;;;;;4944525;28;20566;-57
2023/01/10 08:05:06;;;;;;;14.60;6.23;;;5.30;99.90;;;;;;4946505;29;20475;-56
2023/01/10 08:07:35;;;;;;;13.67;5.17;;;5.40;99.90;;;;;;4946253;28;20467;-59
2023/01/10 08:10:04;;;;;;;12.63;5.73;;;5.40;99.90;;;;;;4945100;28;20252;-59
2023/01/10 08:12:32;;;;;;;17.40;6.93;;;5.50;99.90;;;;;;4946313;28;20484;-57
2023/01/10 08:15:00;;;;;;;17.23;5.87;;;5.40;99.90;;;;;;4946714;28;20482;-59
2023/01/10 08:17:29;;;;;;;16.23;5.77;;;5.40;99.90;;;;;;4949064;28;20474;-58
2023/01/10 08:19:57;;;;;;;18.73;5.87;;;5.40;99.90;;;;;;4947659;28;20854;-58
2023/01/10 08:22:25;;;;;;;15.77;6.10;;;5.40;99.90;;;;;;4949654;28;20490;-57
2023/01/10 08:24:54;;;;;;;20.17;6.60;;;5.40;99.90;;;;;;4949289;29;20474;-57
2023/01/10 08:27:22;;;;;;;18.40;5.83;;;5.50;99.90;;;;;;4949679;28;20466;-58
2023/01/10 08:29:50;;;;;;;16.07;5.83;;;5.50;99.90;;;;;;4947369;29;20994;-59
2023/01/10 08:32:18;;;;;;;17.60;5.67;;;5.60;99.90;;;;;;4949078;28;20475;-59
2023/01/10 08:34:46;;;;;;;17.20;6.50;;;5.60;99.90;;;;;;4949241;28;20481;-58
2023/01/10 08:37:14;;;;;;;17.03;6.53;;;5.60;99.90;;;;;;4949544;28;20226;-55
2023/01/10 08:39:42;;;;;;;11.60;5.53;;;5.60;99.90;;;;;;4947142;29;20534;-58
2023/01/10 08:42:13;;;;;;;17.37;7.07;;;5.70;99.90;;;;;;4949213;29;20507;-59
2023/01/10 08:44:41;;;;;;;24.07;7.50;;;5.70;99.90;;;;;;4949320;29;20229;-58
2023/01/10 08:47:09;;;;;;;22.73;7.10;;;5.70;99.90;;;;;;4949100;29;20234;-59
2023/01/10 08:49:37;;;;;;;19.20;6.80;;;5.70;99.90;;;;;;4946517;29;20489;-59
2023/01/10 08:52:05;;;;;;;18.13;7.50;;;5.70;99.90;;;;;;4948930;28;20480;-58
2023/01/10 08:54:33;;;;;;;16.70;6.77;;;5.70;99.90;;;;;;4948968;28;20993;-57
2023/01/10 08:57:01;;;;;;;19.47;6.17;;;5.80;99.90;;;;;;4947836;29;21296;-59
2023/01/10 08:59:31;;;;;;;19.30;7.00;;;6.00;99.90;;;;;;4945442;29;20490;-57
2023/01/10 09:01:59;;;;;;;22.13;7.80;;;5.90;99.90;;;;;;4946761;28;21487;-58
2023/01/10 09:04:28;;;;;;;22.20;6.73;;;5.90;99.90;;;;;;4947329;29;20482;-58
2023/01/10 09:06:59;;;;;;;18.23;7.03;;;5.90;99.90;;;;;;4947979;29;20487;-58
2023/01/10 09:09:27;;;;;;;23.17;7.53;;;6.00;99.90;;;;;;4945352;28;20481;-58
2023/01/10 09:11:56;;;;;;;15.33;7.20;;;6.00;99.90;;;;;;4947773;28;20534;-57
2023/01/10 09:14:24;;;;;;;29.80;8.03;;;6.00;99.90;;;;;;4948561;29;20248;-57
2023/01/10 09:16:53;;;;;;;21.27;7.93;;;6.00;99.90;;;;;;4948678;29;20246;-58
2023/01/10 09:19:21;;;;;;;20.83;7.40;;;6.10;99.90;;;;;;4946440;29;21013;-58
2023/01/10 09:21:49;;;;;;;23.00;8.20;;;6.10;99.90;;;;;;4946562;29;20250;-59
2023/01/10 09:24:18;;;;;;;21.37;8.37;;;6.10;99.90;;;;;;4946420;29;20227;-59
2023/01/10 09:26:46;;;;;;;17.83;7.80;;;6.10;99.90;;;;;;4946268;28;20984;-59
2023/01/10 09:29:14;;;;;;;17.20;7.60;;;6.10;99.90;;;;;;4945319;28;20239;-57
2023/01/10 09:31:42;;;;;;;24.67;9.27;;;6.10;99.90;;;;;;4946925;28;20292;-58
2023/01/10 09:34:12;;;;;;;25.23;9.23;;;6.20;99.90;;;;;;4946587;29;20573;-59
2023/01/10 09:36:40;;;;;;;23.40;9.27;;;6.20;99.90;;;;;;4948922;28;20230;-58
2023/01/10 09:39:08;;;;;;;25.70;10.53;;;6.10;99.90;;;;;;4945729;29;20618;-58
2023/01/10 09:42:00;;;;;;;22.20;9.13;;;6.20;99.90;;;;;;4947105;28;20490;-58
2023/01/10 09:44:42;;;;;;;26.83;11.27;;;6.20;99.90;;;;;;4946582;29;20293;-54
2023/01/10 09:47:18;;;;;;;19.50;10.43;;;6.10;99.90;;;;;;4947055;28;20602;-56
2023/01/10 09:50:05;;;;;;;25.27;10.83;;;6.20;99.90;;;;;;4944101;28;20234;-58
2023/01/10 09:52:38;;;;;;;21.43;11.10;;;6.20;99.90;;;;;;4947396;29;20494;-59
2023/01/10 09:55:20;;;;;;;23.50;12.00;;;6.20;99.90;;;;;;4947030;29;20230;-59
2023/01/10 09:57:48;;;;;;;27.37;12.83;;;6.20;99.90;;;;;;4946191;28;20689;-59
2023/01/10 10:00:20;;;;;;;24.57;12.23;;;6.20;99.90;;;;;;4943651;28;20230;-58
2023/01/10 10:02:52;;;;;;;27.10;12.40;;;6.20;99.90;;;;;;4945990;28;20607;-59
2023/01/10 10:05:24;;;;;;;22.67;12.57;;;6.20;99.90;;;;;;4946542;28;20247;-59
2023/01/10 10:07:55;;;;;;;24.50;12.23;;;6.20;99.90;;;;;;4946591;29;20482;-55
2023/01/10 10:10:26;;;;;;;20.57;11.33;;;6.30;99.90;;;;;;4944905;29;20711;-55
2023/01/10 10:13:04;;;;;;;21.77;11.67;;;6.30;99.90;;;;;;4945597;29;20910;-54
2023/01/10 10:15:43;;;;;;;27.00;13.57;;;6.40;99.90;;;;;;4945206;29;20239;-56
2023/01/10 10:18:24;;;;;;;27.00;12.63;;;6.40;99.90;;;;;;4945677;28;20329;-59
2023/01/10 10:21:01;;;;;;;22.93;12.83;;;6.50;99.90;;;;;;4945908;28;20231;-59
2023/01/10 10:23:45;;;;;;;32.53;14.10;;;6.40;99.90;;;;;;4946081;29;20239;-58
2023/01/10 10:26:19;;;;;;;25.30;14.27;;;6.50;99.90;;;;;;4945206;29;20231;-58
2023/01/10 10:29:24;;;;;;;23.00;13.13;;;6.50;99.90;;;;;;4943245;29;20458;-58
2023/01/10 10:32:20;;;;;;;26.03;13.37;;;6.50;99.90;;;;;;4943519;28;20660;-59
2023/01/10 10:34:52;;;;;;;21.07;12.57;;;6.50;99.90;;;;;;4946762;29;20231;-59
2023/01/10 10:37:31;;;;;;;22.43;12.47;;;6.60;99.90;;;;;;4947201;28;20486;-59
2023/01/10 10:40:03;;;;;;;24.93;12.77;;;6.60;99.90;;;;;;4944831;29;20235;-59
2023/01/10 10:42:35;;;;;;;19.27;12.60;;;6.60;99.90;;;;;;4946934;29;20653;-58
2023/01/10 10:45:07;;;;;;;27.23;13.13;;;6.70;99.90;;;;;;4946933;29;20231;-58
2023/01/10 10:47:36;;;;;;;23.17;12.53;;;6.70;99.90;;;;;;4946629;28;20569;-59
2023/01/10 10:50:18;;;;;;;24.97;12.57;;;6.70;99.90;;;;;;4944577;29;20235;-56
2023/01/10 10:52:47;;;;;;;21.70;11.83;;;6.70;99.90;;;;;;4946483;29;20253;-58
2023/01/10 10:55:18;;;;;;;24.80;12.13;;;6.70;99.90;;;;;;4946549;28;20234;-59
2023/01/10 10:57:47;;;;;;;24.17;12.37;;;6.80;99.90;;;;;;4946405;28;20335;-58
2023/01/10 11:00:28;;;;;;;21.77;11.70;;;6.80;99.90;;;;;;4944749;28;20250;-57
2023/01/10 11:03:02;;;;;;;23.03;12.30;;;6.80;99.90;;;;;;4944908;29;20281;-55
2023/01/10 11:05:35;;;;;;;26.23;12.40;;;6.80;99.90;;;;;;4945242;29;20242;-59
2023/01/10 11:08:10;;;;;;;23.00;12.63;;;6.80;99.90;;;;;;4943615;29;21296;-57
2023/01/10 11:10:40;;;;;;;27.77;12.50;;;6.80;99.90;;;;;;4944562;28;20595;-59
2023/01/10 11:13:20;;;;;;;27.23;12.03;;;6.80;99.90;;;;;;4946415;29;20226;-59
2023/01/10 11:15:50;;;;;;;24.50;10.57;;;6.80;99.90;;;;;;4946788;28;20238;-59
2023/01/10 11:18:20;;;;;;;22.67;11.77;;;6.80;99.90;;;;;;4942946;28;20742;-56
2023/01/10 11:20:52;;;;;;;23.73;11.60;;;6.90;99.90;;;;;;4944168;28;20235;-58
2023/01/10 11:23:38;;;;;;;22.93;10.33;;;6.90;99.90;;;;;;4945141;29;20235;-58
2023/01/10 11:26:08;;;;;;;23.57;10.67;;;6.90;99.90;;;;;;4945072;29;20226;-58
2023/01/10 11:28:37;;;;;;;17.60;10.37;;;7.00;99.90;;;;;;4943406;29;20246;-58
2023/01/10 11:31:05;;;;;;;20.03;10.20;;;7.00;99.90;;;;;;4944006;28;20243;-58
2023/01/10 11:33:35;;;;;;;19.10;11.03;;;7.00;99.90;;;;;;4945134;28;20223;-54
2023/01/10 11:36:07;;;;;;;20.93;9.80;;;7.10;99.90;;;;;;4944741;29;20246;-52
2023/01/10 11:38:37;;;;;;;18.03;9.90;;;7.10;99.90;;;;;;4943384;29;20243;-57
2023/01/10 11:41:22;;;;;;;22.63;10.70;;;7.10;99.90;;;;;;4945132;28;20242;-58
2023/01/10 11:43:50;;;;;;;24.23;9.97;;;7.20;99.90;;;;;;4945099;28;20242;-58
2023/01/10 11:46:21;;;;;;;28.67;10.83;;;7.20;99.90;;;;;;4944643;28;20726;-58
2023/01/10 11:48:53;;;;;;;25.67;9.80;;;7.20;99.90;;;;;;4942270;29;20235;-58
2023/01/10 11:51:36;;;;;;;20.20;8.97;;;7.20;99.90;;;;;;4947340;29;20277;-58
2023/01/10 11:54:10;;;;;;;18.17;9.43;;;7.30;99.90;;;;;;4948989;28;20231;-58
2023/01/10 11:56:40;;;;;;;23.37;8.50;;;7.30;99.90;;;;;;4948905;28;20242;-58
2023/01/10 11:59:12;;;;;;;25.07;9.07;;;7.30;99.90;;;;;;4946020;29;20314;-59
2023/01/10 12:01:43;;;;;;;18.20;8.97;;;7.30;99.90;;;;;;4947779;28;20257;-58
2023/01/10 12:04:15;;;;;;;19.13;9.10;;;7.30;99.90;;;;;;4948371;28;20715;-58
2023/01/10 12:06:45;;;;;;;21.33;8.23;;;7.30;99.90;;;;;;4948698;28;20235;-58
2023/01/10 12:09:33;;;;;;;20.60;8.93;;;7.40;99.90;;;;;;4945192;29;20242;-58
2023/01/10 12:12:02;;;;;;;19.07;8.20;;;7.60;99.90;;;;;;4948383;28;20223;-59
2023/01/10 12:14:31;;;;;;;24.67;8.93;;;7.50;99.90;;;;;;4948111;28;20228;-58
2023/01/10 12:17:00;;;;;;;17.40;7.97;;;7.50;99.90;;;;;;4948422;29;20240;-58
2023/01/10 12:19:32;;;;;;;15.53;8.07;;;7.50;99.90;;;;;;4944618;28;20287;-57
2023/01/10 12:22:05;;;;;;;23.83;7.83;;;7.50;99.90;;;;;;4947898;28;20290;-58
2023/01/10 12:24:38;;;;;;;17.70;8.03;;;7.40;99.90;;;;;;4947357;28;20231;-58
2023/01/10 12:27:10;;;;;;;20.97;8.10;;;7.40;99.90;;;;;;4947926;29;20564;-58
2023/01/10 12:29:44;;;;;;;25.10;8.57;;;7.40;99.90;;;;;;4944759;29;20251;-54
2023/01/10 12:32:19;;;;;;;13.80;8.13;;;7.40;99.90;;;;;;4947973;28;20797;-56
2023/01/10 12:34:54;;;;;;;15.17;8.40;;;7.50;99.90;;;;;;4947809;28;20262;-58
2023/01/10 12:37:32;;;;;;;17.83;8.07;;;7.50;99.90;;;;;;4947478;29;20223;-54
2023/01/10 12:40:09;;;;;;;20.57;8.00;;;7.50;99.90;;;;;;4945185;28;20250;-59
2023/01/10 12:45:42;;;;;;;22.87;8.77;;;7.60;99.90;;;;;;4947773;28;20247;-55
2023/01/10 12:48:17;;;;;;;20.10;8.60;;;7.60;99.90;;;;;;4946961;28;20263;-56
2023/01/10 12:50:52;;;;;;;21.03;9.53;;;7.70;99.90;;;;;;4947282;29;20715;-54
2023/01/10 12:53:29;;;;;;;16.77;8.97;;;7.80;99.90;;;;;;4948766;29;20257;-59
2023/01/10 12:56:03;;;;;;;20.07;9.90;;;7.70;99.90;;;;;;4948975;29;20711;-58
2023/01/10 12:58:41;;;;;;;18.83;9.23;;;7.70;99.90;;;;;;4944099;28;20234;-58
2023/01/10 13:01:14;;;;;;;19.13;10.13;;;7.80;99.90;;;;;;4945856;28;20634;-57
2023/01/10 13:03:44;;;;;;;19.47;10.27;;;7.80;99.90;;;;;;4947574;29;20235;-57
2023/01/10 13:06:21;;;;;;;18.70;9.90;;;7.80;99.90;;;;;;4947504;29;20727;-57
2023/01/10 13:08:50;;;;;;;20.17;9.80;;;7.80;99.90;;;;;;4945142;29;20235;-57
2023/01/10 13:11:24;;;;;;;22.07;9.90;;;7.80;99.90;;;;;;4947247;29;20245;-58
2023/01/10 13:13:57;;;;;;;18.70;11.03;;;7.80;99.90;;;;;;4948174;28;20222;-59
2023/01/10 13:16:36;;;;;;;17.23;9.67;;;7.70;99.90;;;;;;4947976;29;20330;-57
2023/01/10 13:19:22;;;;;;;17.27;10.20;;;7.60;99.90;;;;;;4947386;28;20357;-57
2023/01/10 13:21:51;;;;;;;19.30;10.17;;;7.60;99.90;;;;;;4947881;29;20710;-57